Time;durP1;ratioP1;P1;durP2;ratioP2;P2;SDS_P1;SDS_P2;PMS_P1;PMS_P2;Temp;Humidity;BMP_temperature;BMP_pressure;BME280_temperature;BME280_humidity;BME280_pressure;Samples;Min_cycle;Max_cycle;Signal;HPM_P1;HPM_P2
2021/06/01 00:01:50;;;;;;;5.57;4.10;;;8.50;75.60;;;;;;5075603;28;20040;-82
2021/06/01 00:04:16;;;;;;;3.85;3.05;;;8.60;76.00;;;;;;5076276;28;20413;-81
2021/06/01 00:06:43;;;;;;;3.22;2.78;;;8.60;75.30;;;;;;5077722;28;20025;-82
2021/06/01 00:09:11;;;;;;;6.47;4.22;;;8.70;76.30;;;;;;5075384;28;20469;-82
2021/06/01 00:11:37;;;;;;;6.75;3.55;;;8.60;76.40;;;;;;5077253;28;20020;-82
2021/06/01 00:14:07;;;;;;;4.35;3.33;;;8.50;77.70;;;;;;5077223;28;20024;-82
2021/06/01 00:16:34;;;;;;;4.65;3.78;;;8.40;76.50;;;;;;5075389;28;20032;-82
2021/06/01 00:19:00;;;;;;;4.68;3.53;;;8.10;77.70;;;;;;5076678;28;20436;-82
2021/06/01 00:21:26;;;;;;;4.32;3.47;;;8.20;78.30;;;;;;5075586;28;20035;-83
2021/06/01 00:23:54;;;;;;;5.30;3.60;;;8.10;78.30;;;;;;5077184;28;20021;-82
2021/06/01 00:26:20;;;;;;;3.92;3.28;;;8.00;78.10;;;;;;5075420;28;20451;-82
2021/06/01 00:28:46;;;;;;;5.88;3.20;;;7.90;78.20;;;;;;5076813;28;20104;-82
2021/06/01 00:31:12;;;;;;;5.07;3.28;;;8.10;77.70;;;;;;5076613;28;20055;-82
2021/06/01 00:33:39;;;;;;;3.17;2.65;;;8.10;77.50;;;;;;5076405;28;20069;-82
2021/06/01 00:36:06;;;;;;;4.10;3.17;;;8.20;75.50;;;;;;5077270;28;20406;-82
2021/06/01 00:38:32;;;;;;;3.58;3.17;;;8.10;76.30;;;;;;5076768;28;20099;-81
2021/06/01 00:40:58;;;;;;;3.90;2.88;;;8.10;75.90;;;;;;5074783;28;20060;-82
2021/06/01 00:43:23;;;;;;;4.10;3.30;;;8.10;75.70;;;;;;5074028;28;20029;-82
2021/06/01 00:45:50;;;;;;;4.60;3.30;;;8.10;76.50;;;;;;5076937;28;20076;-82
2021/06/01 00:48:15;;;;;;;1.80;1.70;;;8.20;76.10;;;;;;5075529;28;20028;-81
2021/06/01 00:50:41;;;;;;;3.05;2.28;;;8.10;75.90;;;;;;5076852;28;20029;-81
2021/06/01 00:53:08;;;;;;;2.17;1.98;;;8.10;76.00;;;;;;5076607;28;20025;-82
2021/06/01 00:55:35;;;;;;;5.85;2.85;;;8.10;76.10;;;;;;5078107;28;20021;-82
2021/06/01 00:58:01;;;;;;;4.45;3.00;;;8.00;76.60;;;;;;5077359;28;20032;-82
2021/06/01 01:00:53;;;;;;;4.53;3.13;;;7.90;76.80;;;;;;5077445;28;20032;-82
2021/06/01 01:03:19;;;;;;;6.50;3.25;;;7.70;77.80;;;;;;5075603;28;20024;-81
2021/06/01 01:05:49;;;;;;;3.17;2.88;;;7.70;78.00;;;;;;5075055;28;20021;-81
2021/06/01 01:08:49;;;;;;;1.38;1.30;;;7.70;77.30;;;;;;5075787;28;20033;-81
2021/06/01 01:11:37;;;;;;;1.40;1.30;;;7.70;75.90;;;;;;5076710;28;20021;-80
2021/06/01 01:14:29;;;;;;;1.17;1.17;;;7.70;75.90;;;;;;5075640;28;20115;-80
2021/06/01 01:17:05;;;;;;;1.27;1.20;;;7.70;75.90;;;;;;5076320;28;20517;-81
2021/06/01 01:19:45;;;;;;;1.23;1.20;;;7.60;76.10;;;;;;5077101;28;20104;-81
2021/06/01 01:22:12;;;;;;;3.45;2.30;;;7.60;76.10;;;;;;5075816;28;20020;-81
2021/06/01 01:24:57;;;;;;;2.90;2.67;;;7.50;76.90;;;;;;5075825;28;20063;-81
2021/06/01 01:27:51;;;;;;;4.70;3.10;;;7.40;77.70;;;;;;5075272;28;20036;-81
2021/06/01 01:30:18;;;;;;;3.58;2.92;;;7.30;78.70;;;;;;5074778;28;20362;-81
2021/06/01 01:32:58;;;;;;;3.78;3.17;;;7.20;78.80;;;;;;5076187;28;20025;-81
2021/06/01 01:35:27;;;;;;;5.45;3.50;;;7.20;78.90;;;;;;5074293;28;20052;-81
2021/06/01 01:37:54;;;;;;;3.70;3.30;;;7.10;79.70;;;;;;5076602;28;20455;-81
2021/06/01 01:40:24;;;;;;;4.78;3.30;;;7.00;80.90;;;;;;5076951;28;20029;-82
2021/06/01 01:42:54;;;;;;;4.75;3.13;;;7.00;80.70;;;;;;5078072;28;20048;-82
2021/06/01 01:45:34;;;;;;;4.30;3.25;;;6.90;81.00;;;;;;5074862;28;20123;-82
2021/06/01 01:50:50;;;;;;;3.97;3.45;;;6.90;81.00;;;;;;5078924;28;20056;-83
2021/06/01 01:53:17;;;;;;;2.40;2.20;;;6.90;80.90;;;;;;5078644;28;20027;-83
2021/06/01 01:55:48;;;;;;;4.72;2.97;;;7.00;79.40;;;;;;5080582;28;20035;-82
2021/06/01 01:58:16;;;;;;;3.53;2.60;;;7.10;79.10;;;;;;5082815;28;20044;-82
2021/06/01 02:00:43;;;;;;;4.87;3.40;;;7.20;78.60;;;;;;5079824;28;20097;-83
2021/06/01 02:03:08;;;;;;;4.18;3.10;;;7.20;78.80;;;;;;5077908;28;20032;-82
2021/06/01 02:05:36;;;;;;;4.65;3.33;;;7.30;78.80;;;;;;5078093;28;20563;-82
2021/06/01 02:08:02;;;;;;;4.57;2.85;;;7.20;79.60;;;;;;5079781;28;20119;-82
2021/06/01 02:10:29;;;;;;;4.60;2.72;;;7.00;79.60;;;;;;5078302;28;20116;-82
2021/06/01 02:12:55;;;;;;;5.10;2.80;;;6.90;80.10;;;;;;5077025;28;20021;-82
2021/06/01 02:15:21;;;;;;;3.92;2.97;;;7.00;79.10;;;;;;5079603;28;20024;-82
2021/06/01 02:17:46;;;;;;;6.55;3.60;;;7.00;79.00;;;;;;5078643;28;20658;-82
2021/06/01 02:20:14;;;;;;;3.80;2.85;;;6.90;79.90;;;;;;5077412;28;20170;-81
2021/06/01 02:25:44;;;;;;;3.58;3.20;;;6.90;78.60;;;;;;5079150;28;20074;-82
2021/06/01 02:28:19;;;;;;;3.05;2.03;;;6.70;79.00;;;;;;5078923;28;20402;-82
2021/06/01 02:30:57;;;;;;;2.60;1.92;;;6.60;78.70;;;;;;5078429;28;20028;-82
2021/06/01 02:33:25;;;;;;;3.22;2.92;;;6.70;78.60;;;;;;5074574;28;20025;-82
2021/06/01 02:35:52;;;;;;;9.07;2.67;;;6.70;79.00;;;;;;5060817;28;20024;-81
2021/06/01 02:38:19;;;;;;;3.72;2.70;;;6.60;79.30;;;;;;5078613;28;20032;-81
2021/06/01 02:40:46;;;;;;;3.85;3.00;;;6.60;80.10;;;;;;5078892;28;20100;-82
2021/06/01 02:43:14;;;;;;;3.80;2.80;;;6.60;80.20;;;;;;5078956;28;20425;-82
2021/06/01 02:45:44;;;;;;;3.78;2.90;;;6.60;80.00;;;;;;5079143;28;20025;-81
2021/06/01 02:48:17;;;;;;;3.25;2.95;;;6.60;79.00;;;;;;5061116;28;20020;-81
2021/06/01 02:50:44;;;;;;;7.18;3.20;;;6.70;78.90;;;;;;5060281;28;20659;-82
2021/06/01 02:53:12;;;;;;;2.97;2.60;;;6.80;79.10;;;;;;5078841;28;20074;-81
2021/06/01 02:55:38;;;;;;;3.80;3.10;;;6.80;78.90;;;;;;5059949;28;20060;-81
2021/06/01 02:58:07;;;;;;;3.55;2.80;;;6.90;78.40;;;;;;5078460;28;20033;-81
2021/06/01 03:00:34;;;;;;;5.07;3.00;;;6.90;78.60;;;;;;5060472;28;20085;-81
2021/06/01 03:03:05;;;;;;;2.90;2.22;;;6.80;78.80;;;;;;5078327;28;20021;-82
2021/06/01 03:05:31;;;;;;;2.35;2.20;;;6.80;76.40;;;;;;5078472;28;20028;-81
2021/06/01 03:08:14;;;;;;;4.90;2.00;;;6.60;73.70;;;;;;5059873;28;20029;-82
2021/06/01 03:10:40;;;;;;;2.63;2.42;;;6.50;73.60;;;;;;5060703;28;20044;-82
2021/06/01 03:13:06;;;;;;;3.13;2.42;;;6.50;74.10;;;;;;5077608;28;20096;-82
2021/06/01 03:15:31;;;;;;;3.35;2.80;;;6.40;75.30;;;;;;5078035;28;20075;-82
2021/06/01 03:17:57;;;;;;;5.10;2.15;;;6.40;76.60;;;;;;5059759;28;20036;-82
2021/06/01 03:20:23;;;;;;;3.90;2.95;;;6.30;78.00;;;;;;5077849;28;20028;-82
2021/06/01 03:22:49;;;;;;;4.07;2.67;;;6.20;79.20;;;;;;5078247;28;20054;-82
2021/06/01 03:25:15;;;;;;;3.28;2.42;;;6.10;79.90;;;;;;5060710;28;20047;-82
2021/06/01 03:27:41;;;;;;;4.28;2.83;;;6.20;79.10;;;;;;5060081;28;20035;-82
2021/06/01 03:30:09;;;;;;;4.95;2.70;;;6.20;80.30;;;;;;5077935;28;20020;-81
2021/06/01 03:32:34;;;;;;;3.60;3.00;;;6.20;79.40;;;;;;5059899;28;20354;-82
2021/06/01 03:35:00;;;;;;;4.50;3.20;;;6.30;78.60;;;;;;5077370;28;20076;-82
2021/06/01 03:37:26;;;;;;;4.82;3.05;;;6.30;78.90;;;;;;5077647;28;20096;-82
2021/06/01 03:39:52;;;;;;;3.60;2.78;;;6.20;79.10;;;;;;5059446;28;20504;-82
2021/06/01 03:42:18;;;;;;;2.78;2.22;;;6.20;80.00;;;;;;5060358;28;20120;-82
2021/06/01 03:44:44;;;;;;;1.70;1.60;;;6.20;80.30;;;;;;5059480;28;20049;-82
2021/06/01 03:47:10;;;;;;;3.28;2.35;;;6.20;80.50;;;;;;5059408;28;20024;-83
2021/06/01 03:49:36;;;;;;;5.70;3.20;;;6.30;80.60;;;;;;5059790;28;20493;-82
2021/06/01 03:52:07;;;;;;;4.65;3.30;;;6.40;81.10;;;;;;5076932;28;20385;-82
2021/06/01 03:54:37;;;;;;;5.20;2.45;;;6.50;80.40;;;;;;5077362;28;20021;-82
2021/06/01 03:57:04;;;;;;;2.60;2.40;;;6.50;80.00;;;;;;5077303;28;20086;-82
2021/06/01 03:59:29;;;;;;;2.30;2.10;;;6.60;80.20;;;;;;5058728;28;20123;-82
2021/06/01 04:01:55;;;;;;;2.30;2.10;;;6.60;80.20;;;;;;5077064;28;20063;-82
2021/06/01 04:04:21;;;;;;;2.28;1.73;;;6.60;79.90;;;;;;5076458;28;20089;-82
2021/06/01 04:06:47;;;;;;;5.22;2.83;;;6.60;79.80;;;;;;5076033;28;20088;-82
2021/06/01 04:09:13;;;;;;;5.07;2.97;;;6.70;79.90;;;;;;5058565;28;20017;-82
2021/06/01 04:11:39;;;;;;;1.90;1.70;;;6.70;80.20;;;;;;5076589;28;20028;-82
2021/06/01 04:14:05;;;;;;;1.60;1.50;;;6.70;79.90;;;;;;5058742;28;20024;-82
2021/06/01 04:16:31;;;;;;;1.67;1.58;;;6.70;78.20;;;;;;5076307;28;20028;-82
2021/06/01 04:18:56;;;;;;;1.95;1.85;;;6.70;78.10;;;;;;5075264;28;20106;-82
2021/06/01 04:21:22;;;;;;;2.30;2.10;;;6.60;78.20;;;;;;5057544;28;20123;-83
2021/06/01 04:23:48;;;;;;;2.60;1.70;;;6.50;79.20;;;;;;5076397;28;20058;-82
2021/06/01 04:26:14;;;;;;;2.58;1.80;;;6.60;79.50;;;;;;5058556;28;20028;-83
2021/06/01 04:28:41;;;;;;;1.98;1.88;;;6.60;79.90;;;;;;5075945;28;20052;-82
2021/06/01 04:31:07;;;;;;;3.30;2.40;;;6.70;80.70;;;;;;5058161;28;20513;-83
2021/06/01 04:33:32;;;;;;;3.33;2.70;;;6.80;81.00;;;;;;5058266;28;20028;-82
2021/06/01 04:35:59;;;;;;;3.45;2.50;;;6.90;81.60;;;;;;5057762;28;20032;-82
2021/06/01 04:38:25;;;;;;;3.13;2.83;;;7.00;81.80;;;;;;5075799;28;20020;-82
2021/06/01 04:40:51;;;;;;;3.85;3.35;;;7.10;81.90;;;;;;5076208;28;20040;-83
2021/06/01 04:43:17;;;;;;;3.15;2.85;;;7.20;81.70;;;;;;5076222;28;20024;-83
2021/06/01 04:45:43;;;;;;;2.67;2.40;;;7.20;81.50;;;;;;5057248;28;20031;-84
2021/06/01 04:48:09;;;;;;;3.03;2.72;;;7.30;81.10;;;;;;5057032;28;20029;-83
2021/06/01 04:50:35;;;;;;;2.63;2.42;;;7.50;80.70;;;;;;5057207;28;20023;-83
2021/06/01 04:53:00;;;;;;;2.55;2.35;;;7.60;80.60;;;;;;5075434;28;20063;-82
2021/06/01 04:55:26;;;;;;;2.45;2.25;;;7.70;80.30;;;;;;5057106;28;20393;-82
2021/06/01 04:57:52;;;;;;;2.70;2.50;;;7.70;80.60;;;;;;5075748;28;20521;-83
2021/06/01 05:00:18;;;;;;;2.75;2.30;;;7.90;81.20;;;;;;5074719;28;20043;-83
2021/06/01 05:02:44;;;;;;;2.60;2.40;;;7.90;80.90;;;;;;5056496;28;20135;-83
2021/06/01 05:05:10;;;;;;;2.60;2.30;;;8.00;81.40;;;;;;5075881;28;20694;-82
2021/06/01 05:07:35;;;;;;;3.40;2.90;;;8.10;81.80;;;;;;5057457;28;20201;-83
2021/06/01 05:10:03;;;;;;;3.05;2.75;;;8.30;82.80;;;;;;5057362;28;20021;-83
2021/06/01 05:12:30;;;;;;;5.13;3.22;;;8.40;82.40;;;;;;5058191;28;20021;-83
2021/06/01 05:14:56;;;;;;;3.60;3.28;;;8.60;82.00;;;;;;5057064;28;20025;-83
2021/06/01 05:17:22;;;;;;;4.78;3.35;;;8.70;83.30;;;;;;5075367;28;20031;-83
2021/06/01 05:19:48;;;;;;;5.28;3.75;;;8.80;83.20;;;;;;5056929;28;20024;-84
2021/06/01 05:22:14;;;;;;;4.22;3.20;;;8.90;83.40;;;;;;5075338;28;20040;-83
2021/06/01 05:24:40;;;;;;;4.53;3.85;;;9.10;82.80;;;;;;5057737;28;20066;-83
2021/06/01 05:27:06;;;;;;;5.25;4.43;;;9.20;82.40;;;;;;5075280;28;20094;-83
2021/06/01 05:29:35;;;;;;;6.57;4.90;;;9.40;83.40;;;;;;5074600;28;20028;-84
2021/06/01 05:33:10;;;;;;;5.32;4.82;;;9.60;84.00;;;;;;5059789;28;20088;-84
2021/06/01 05:34:57;;;;;;;8.30;5.50;;;9.80;83.80;;;;;;5067148;28;20037;-83
2021/06/01 05:37:27;;;;;;;8.05;5.32;;;9.90;82.60;;;;;;5079399;28;20036;-83
2021/06/01 05:39:52;;;;;;;8.30;5.00;;;10.10;83.50;;;;;;5079274;28;20048;-84
2021/06/01 05:42:18;;;;;;;10.13;5.70;;;10.30;81.20;;;;;;5051987;28;20025;-84
2021/06/01 05:44:46;;;;;;;7.75;4.82;;;10.50;81.90;;;;;;5078369;28;20027;-84
2021/06/01 05:47:13;;;;;;;8.75;4.97;;;10.60;79.40;;;;;;5060381;28;20081;-83
2021/06/01 05:49:39;;;;;;;6.35;5.25;;;10.70;78.90;;;;;;5059911;28;20031;-85
2021/06/01 05:52:05;;;;;;;8.68;5.60;;;10.90;80.00;;;;;;5063067;28;20017;-83
2021/06/01 05:54:31;;;;;;;7.28;4.90;;;11.00;79.00;;;;;;5057935;28;20025;-84
2021/06/01 05:56:56;;;;;;;8.05;5.82;;;11.10;79.10;;;;;;5058481;28;20043;-84
2021/06/01 05:59:22;;;;;;;8.23;5.80;;;11.30;78.20;;;;;;5040872;28;20356;-84
2021/06/01 06:01:47;;;;;;;9.20;5.50;;;11.40;77.40;;;;;;5057730;28;20037;-84
2021/06/01 06:04:13;;;;;;;8.13;5.18;;;11.50;79.10;;;;;;5064472;28;20065;-83
2021/06/01 06:06:39;;;;;;;7.93;5.82;;;11.70;77.70;;;;;;5070701;28;20107;-86
2021/06/01 06:09:05;;;;;;;6.13;4.85;;;11.80;77.30;;;;;;5049935;28;20545;-85
2021/06/01 06:11:30;;;;;;;7.80;5.63;;;11.90;76.80;;;;;;5050902;28;20050;-85
2021/06/01 06:13:56;;;;;;;8.25;5.28;;;12.10;75.70;;;;;;5056836;28;20024;-85
2021/06/01 06:16:22;;;;;;;9.57;5.70;;;12.20;76.30;;;;;;5074738;28;20039;-84
2021/06/01 06:18:58;;;;;;;9.35;5.35;;;12.30;74.70;;;;;;5085007;28;20123;-84
2021/06/01 06:21:24;;;;;;;11.48;5.05;;;12.50;76.20;;;;;;5079127;28;20117;-83
2021/06/01 06:23:49;;;;;;;7.95;5.10;;;12.60;74.00;;;;;;5057037;28;20056;-84
2021/06/01 06:26:15;;;;;;;13.65;5.50;;;12.80;73.30;;;;;;5060011;28;20020;-85
2021/06/01 06:28:41;;;;;;;7.80;5.25;;;13.00;74.40;;;;;;5053669;28;20028;-85
2021/06/01 06:31:07;;;;;;;6.47;5.00;;;13.10;74.00;;;;;;5063574;28;20037;-85
2021/06/01 06:33:34;;;;;;;4.05;3.60;;;13.20;72.00;;;;;;5054078;28;20021;-84
2021/06/01 06:36:00;;;;;;;6.25;3.65;;;13.30;67.60;;;;;;5052574;28;20035;-84
2021/06/01 06:38:25;;;;;;;7.85;5.50;;;13.50;63.30;;;;;;5066166;28;20417;-85
2021/06/01 06:43:29;;;;;;;5.85;3.58;;;13.70;70.50;;;;;;5072188;28;20024;-85
2021/06/01 06:45:55;;;;;;;3.85;3.08;;;13.90;63.30;;;;;;5053326;28;20091;-85
2021/06/01 06:48:21;;;;;;;5.38;2.88;;;13.90;62.60;;;;;;5061524;28;20086;-84
2021/06/01 06:50:46;;;;;;;4.35;3.38;;;14.00;62.10;;;;;;5073113;28;20029;-82
2021/06/01 06:53:12;;;;;;;4.65;3.80;;;14.20;62.60;;;;;;5051551;28;20029;-82
2021/06/01 06:55:38;;;;;;;5.40;3.40;;;14.40;63.00;;;;;;5070846;28;20482;-84
2021/06/01 06:58:03;;;;;;;4.65;3.55;;;14.50;62.50;;;;;;5061531;28;20039;-82
2021/06/01 07:00:30;;;;;;;3.85;3.47;;;14.60;64.20;;;;;;5069461;28;20028;-83
2021/06/01 07:02:56;;;;;;;8.60;3.08;;;14.80;62.60;;;;;;5061691;28;20040;-82
2021/06/01 07:05:22;;;;;;;3.75;3.20;;;14.90;60.10;;;;;;5062196;28;20502;-85
2021/06/01 07:07:51;;;;;;;4.43;3.30;;;15.00;59.50;;;;;;5074457;28;20039;-84
2021/06/01 07:10:18;;;;;;;3.95;2.95;;;15.10;59.00;;;;;;5050174;28;20092;-85
2021/06/01 07:12:44;;;;;;;3.85;3.10;;;15.20;59.90;;;;;;5068562;28;20016;-85
2021/06/01 07:15:13;;;;;;;3.45;2.90;;;15.30;60.30;;;;;;5054073;28;20075;-83
2021/06/01 07:17:44;;;;;;;4.78;3.25;;;15.40;57.80;;;;;;5051988;28;20039;-86
2021/06/01 07:20:13;;;;;;;5.22;3.67;;;15.40;56.80;;;;;;5050906;28;20067;-83
2021/06/01 07:22:39;;;;;;;7.43;3.08;;;15.40;56.90;;;;;;5070097;28;20051;-85
2021/06/01 07:25:06;;;;;;;3.55;3.22;;;15.50;58.50;;;;;;5076106;28;20032;-83
2021/06/01 07:27:34;;;;;;;4.15;3.17;;;15.60;58.10;;;;;;5050972;28;20028;-82
2021/06/01 07:30:00;;;;;;;3.78;2.50;;;15.70;55.80;;;;;;5082378;28;20028;-79
2021/06/01 07:32:26;;;;;;;4.35;2.78;;;15.80;53.70;;;;;;5055882;28;20029;-82
2021/06/01 07:34:52;;;;;;;3.53;3.22;;;15.90;54.00;;;;;;5071414;28;20100;-83
2021/06/01 07:37:18;;;;;;;5.25;3.00;;;16.00;52.50;;;;;;5064705;28;20025;-83
2021/06/01 07:39:44;;;;;;;3.40;2.97;;;16.00;53.00;;;;;;5050367;28;20516;-81
2021/06/01 07:42:10;;;;;;;4.63;3.35;;;16.10;52.90;;;;;;5042157;28;20057;-81
2021/06/01 07:44:35;;;;;;;3.70;2.92;;;16.20;52.00;;;;;;5061263;28;20024;-82
2021/06/01 07:47:02;;;;;;;3.70;3.30;;;16.30;51.90;;;;;;5080251;28;20025;-82
2021/06/01 07:49:27;;;;;;;3.40;3.10;;;16.30;52.70;;;;;;5073375;28;20166;-82
2021/06/01 07:51:53;;;;;;;4.53;3.65;;;16.40;51.90;;;;;;5056409;28;20017;-83
2021/06/01 07:54:19;;;;;;;2.80;2.60;;;16.50;53.10;;;;;;5068158;28;20048;-82
2021/06/01 07:56:45;;;;;;;2.85;2.55;;;16.50;48.80;;;;;;5049343;28;20044;-83
2021/06/01 07:59:12;;;;;;;3.00;2.70;;;16.60;51.40;;;;;;5071689;28;20033;-82
2021/06/01 08:01:38;;;;;;;3.10;2.80;;;16.70;51.30;;;;;;5051298;28;20044;-82
2021/06/01 08:04:03;;;;;;;2.53;2.33;;;16.80;49.30;;;;;;5066466;28;20021;-82
2021/06/01 08:06:35;;;;;;;3.15;2.72;;;16.90;47.80;;;;;;5053190;28;20031;-82
2021/06/01 08:09:01;;;;;;;3.08;2.78;;;17.00;50.40;;;;;;5048646;28;20059;-80
2021/06/01 08:11:27;;;;;;;3.55;2.70;;;17.10;49.10;;;;;;5066664;28;20502;-82
2021/06/01 08:13:52;;;;;;;4.70;2.58;;;17.20;49.60;;;;;;5067533;28;20044;-82
2021/06/01 08:16:18;;;;;;;2.92;2.63;;;17.20;47.80;;;;;;5067045;28;20526;-83
2021/06/01 08:18:52;;;;;;;4.68;2.83;;;17.20;45.50;;;;;;5044897;28;20024;-82
2021/06/01 08:21:25;;;;;;;5.55;2.63;;;17.30;46.50;;;;;;5075274;28;20020;-81
2021/06/01 08:23:51;;;;;;;11.13;3.42;;;17.40;42.50;;;;;;5054305;28;20032;-82
2021/06/01 08:26:16;;;;;;;2.60;2.40;;;17.30;41.90;;;;;;5060485;28;20042;-82
2021/06/01 08:28:42;;;;;;;4.03;2.53;;;17.30;42.70;;;;;;5068924;28;20020;-82
2021/06/01 08:31:08;;;;;;;4.15;2.40;;;17.30;44.10;;;;;;5071067;28;20035;-81
2021/06/01 08:33:33;;;;;;;2.70;2.50;;;17.50;42.80;;;;;;5073667;28;20017;-81
2021/06/01 08:36:00;;;;;;;3.63;2.58;;;17.50;44.40;;;;;;5053920;28;20050;-81
2021/06/01 08:38:26;;;;;;;4.95;2.60;;;17.60;44.70;;;;;;5048732;28;20478;-83
2021/06/01 08:40:52;;;;;;;2.60;2.40;;;17.80;43.40;;;;;;5049209;28;20024;-82
2021/06/01 08:43:26;;;;;;;4.53;2.25;;;17.70;44.10;;;;;;5063941;28;20084;-82
2021/06/01 08:45:57;;;;;;;2.92;2.22;;;17.70;44.00;;;;;;5067625;28;20025;-81
2021/06/01 08:48:23;;;;;;;3.33;2.53;;;17.80;43.10;;;;;;5051132;28;20029;-80
2021/06/01 08:50:51;;;;;;;2.75;2.50;;;17.90;41.30;;;;;;5069603;28;20044;-82
2021/06/01 08:53:18;;;;;;;2.97;2.65;;;18.00;42.80;;;;;;5063501;28;20087;-82
2021/06/01 08:55:45;;;;;;;17.73;4.57;;;18.20;42.50;;;;;;5064394;28;20126;-83
2021/06/01 08:58:22;;;;;;;4.82;2.40;;;18.10;41.60;;;;;;5070819;28;20461;-81
2021/06/01 09:00:48;;;;;;;2.42;2.20;;;18.20;44.10;;;;;;5063135;28;20108;-83
2021/06/01 09:03:22;;;;;;;3.20;2.78;;;18.30;42.30;;;;;;5073741;28;20028;-81
2021/06/01 09:06:15;;;;;;;4.10;2.42;;;18.30;41.60;;;;;;5048416;28;20051;-81
2021/06/01 09:20:08;;;;;;;5.35;2.78;;;18.10;41.10;;;;;;5074197;28;20042;-81
2021/06/01 09:22:32;;;;;;;3.47;2.70;;;18.20;43.80;;;;;;5084385;28;20208;-84
2021/06/01 09:25:01;;;;;;;;;;;18.50;42.60;;;;;;5059164;28;20033;-86
2021/06/01 09:27:32;;;;;;;3.10;2.80;;;18.40;42.00;;;;;;5058464;28;19912;-85
2021/06/01 09:29:57;;;;;;;3.08;2.70;;;18.50;41.80;;;;;;5058939;28;20021;-85
2021/06/01 09:32:24;;;;;;;6.03;3.00;;;18.50;41.30;;;;;;5047591;28;20451;-85
2021/06/01 09:34:52;;;;;;;6.30;3.20;;;18.60;40.90;;;;;;5062538;28;20045;-86
2021/06/01 09:37:32;;;;;;;3.20;2.45;;;18.60;42.10;;;;;;5058268;28;20078;-85
2021/06/01 09:40:10;;;;;;;4.38;2.70;;;18.60;41.40;;;;;;5058025;28;20131;-86
2021/06/01 09:42:39;;;;;;;2.75;2.55;;;18.70;42.90;;;;;;5077545;28;20023;-85
2021/06/01 09:45:07;;;;;;;3.45;3.00;;;18.80;43.40;;;;;;5045433;28;20032;-85
2021/06/01 09:47:46;;;;;;;3.58;2.95;;;18.80;42.70;;;;;;5057918;28;20052;-85
2021/06/01 09:50:38;;;;;;;3.80;2.55;;;18.90;40.80;;;;;;5057683;28;20048;-86
2021/06/01 09:53:21;;;;;;;5.22;3.13;;;18.90;39.90;;;;;;5075692;28;20457;-85
2021/06/01 09:55:48;;;;;;;3.97;3.50;;;19.00;41.20;;;;;;5056963;28;20020;-85
2021/06/01 09:58:25;;;;;;;5.95;3.10;;;19.10;41.40;;;;;;5080204;28;20032;-85
2021/06/01 10:00:51;;;;;;;2.80;2.55;;;18.80;38.80;;;;;;5056497;28;20028;-85
2021/06/01 10:03:37;;;;;;;3.80;3.00;;;18.90;41.60;;;;;;5053909;28;20104;-85
2021/06/01 10:06:03;;;;;;;2.78;2.38;;;19.10;40.70;;;;;;5053018;28;20035;-86
2021/06/01 10:08:30;;;;;;;5.53;3.25;;;19.10;41.90;;;;;;5064906;28;20025;-85
2021/06/01 10:10:55;;;;;;;5.07;2.85;;;19.10;42.50;;;;;;5054373;28;20074;-84
2021/06/01 10:13:23;;;;;;;3.20;2.78;;;19.20;42.60;;;;;;5036274;28;20017;-84
2021/06/01 10:15:50;;;;;;;;;;;19.30;41.20;;;;;;5053759;28;20054;-86
2021/06/01 10:18:18;;;;;;;28.88;4.65;;;19.40;42.10;;;;;;5056638;28;20512;-85
2021/06/01 10:20:47;;;;;;;3.95;2.80;;;19.40;39.30;;;;;;5049892;28;20044;-85
2021/06/01 10:23:13;;;;;;;;;;;19.40;40.70;;;;;;5083808;28;20367;-85
2021/06/01 10:25:40;;;;;;;6.13;3.53;;;19.40;41.40;;;;;;5054641;28;20521;-85
2021/06/01 10:28:08;;;;;;;3.38;3.05;;;19.20;40.30;;;;;;5053088;28;20032;-84
2021/06/01 10:30:39;;;;;;;3.50;2.78;;;19.20;41.90;;;;;;5049890;28;20032;-85
2021/06/01 10:33:10;;;;;;;4.13;3.47;;;19.30;39.90;;;;;;5055801;28;20029;-84
2021/06/01 10:35:40;;;;;;;4.18;2.63;;;19.30;39.20;;;;;;5048339;28;20226;-85
2021/06/01 10:52:21;;;;;;;4.72;2.80;;;19.70;39.00;;;;;;5072725;28;20032;-85
2021/06/01 10:54:48;;;;;;;4.57;2.70;;;19.70;38.00;;;;;;5072431;28;20050;-85
2021/06/01 10:57:15;;;;;;;;;;;19.70;37.90;;;;;;4996741;28;1446669;-84
2021/06/01 11:02:27;;;;;;;3.65;3.00;;;19.90;39.60;;;;;;5075720;28;20055;-85
2021/06/01 11:05:12;;;;;;;3.15;2.80;;;19.90;39.90;;;;;;5052953;28;20024;-84
2021/06/01 11:07:55;;;;;;;4.43;2.85;;;19.80;39.50;;;;;;5053107;28;20068;-85
2021/06/01 11:10:37;;;;;;;3.80;2.55;;;19.70;39.50;;;;;;5057089;28;20546;-85
2021/06/01 11:13:04;;;;;;;2.65;2.13;;;19.80;37.70;;;;;;5055471;28;20071;-84
2021/06/01 11:15:33;;;;;;;3.42;2.58;;;19.80;38.90;;;;;;5043968;28;20041;-84
2021/06/01 11:18:23;;;;;;;2.67;2.33;;;19.80;38.70;;;;;;5046244;28;20043;-85
2021/06/01 11:35:22;;;;;;;4.38;2.13;;;19.90;36.20;;;;;;5073047;28;20074;-82
2021/06/01 11:38:32;;;;;;;10.32;2.58;;;20.00;39.00;;;;;;5076865;28;20024;-84
2021/06/01 11:43:11;;;;;;;3.45;2.30;;;19.80;36.50;;;;;;5096886;28;20035;-83
2021/06/01 11:51:46;;;;;;;2.75;2.05;;;19.90;36.80;;;;;;5082880;28;20440;-82
2021/06/01 11:54:15;;;;;;;2.45;2.25;;;19.80;37.60;;;;;;5079217;28;20028;-82
2021/06/01 12:02:42;;;;;;;3.55;2.40;;;20.00;37.80;;;;;;5088295;28;20039;-82
2021/06/01 12:13:48;;;;;;;4.28;2.28;;;20.00;35.20;;;;;;5076318;28;20108;-82
2021/06/01 12:19:06;;;;;;;;;;;19.90;35.40;;;;;;5075550;28;20079;-82
2021/06/01 12:21:46;;;;;;;3.42;2.38;;;20.00;39.00;;;;;;5054230;28;19916;-81
2021/06/01 12:24:19;;;;;;;3.60;2.10;;;20.00;36.60;;;;;;5054190;28;20111;-82
2021/06/01 12:32:22;;;;;;;2.70;1.85;;;20.30;38.50;;;;;;5069200;28;20056;-81
2021/06/01 12:46:13;;;;;;;2.45;2.15;;;20.30;36.90;;;;;;5075586;28;20035;-83
2021/06/01 13:09:43;;;;;;;2.50;2.28;;;20.20;34.70;;;;;;5012714;28;20112;-82
2021/06/01 13:20:08;;;;;;;3.40;2.10;;;20.50;36.80;;;;;;5053861;28;20544;-84
2021/06/01 13:31:46;;;;;;;2.38;1.80;;;20.60;34.80;;;;;;5053550;28;20082;-84
2021/06/01 13:47:15;;;;;;;2.35;2.15;;;20.80;34.00;;;;;;5053504;28;20498;-84
2021/06/01 13:49:47;;;;;;;3.60;2.20;;;20.70;33.10;;;;;;5049211;28;20036;-84
2021/06/01 13:52:30;;;;;;;2.85;1.90;;;20.60;35.60;;;;;;5058701;28;20421;-83
2021/06/01 13:55:23;;;;;;;2.80;2.47;;;20.70;36.40;;;;;;5060614;28;20021;-84
2021/06/01 14:30:26;;;;;;;;;;;20.70;31.80;;;;;;5097643;28;20085;-83
2021/06/01 15:31:29;;;;;;;2.00;1.80;;;20.80;33.20;;;;;;5094814;28;20501;-84
2021/06/01 15:47:46;;;;;;;1.90;1.60;;;20.80;33.30;;;;;;5095281;28;20082;-84
2021/06/01 15:49:45;;;;;;;5.88;1.80;;;21.10;32.50;;;;;;5094327;28;20038;-83
2021/06/01 16:11:34;;;;;;;;;;;20.90;35.50;;;;;;5094835;28;20077;-83
2021/06/01 17:08:47;;;;;;;5.63;2.30;;;20.70;33.40;;;;;;5096234;28;20035;-84
2021/06/01 17:13:41;;;;;;;2.88;2.00;;;20.60;32.70;;;;;;5077743;28;20017;-84
2021/06/01 17:16:12;;;;;;;1.65;1.55;;;20.60;33.20;;;;;;5060755;28;20043;-85
2021/06/01 17:24:08;;;;;;;1.60;1.50;;;20.70;31.80;;;;;;5057035;28;20032;-84
2021/06/01 17:30:38;;;;;;;1.48;1.38;;;20.60;31.80;;;;;;5058743;28;20057;-84
2021/06/01 17:32:32;;;;;;;2.88;1.60;;;20.60;31.30;;;;;;5057076;28;20036;-82
2021/06/01 17:35:03;;;;;;;1.70;1.55;;;20.60;31.00;;;;;;5058028;28;20522;-83
2021/06/01 17:37:29;;;;;;;2.22;1.60;;;20.60;31.50;;;;;;5057723;28;20028;-83
2021/06/01 17:39:55;;;;;;;1.70;1.50;;;20.50;31.40;;;;;;5040723;28;20029;-83
2021/06/01 17:42:27;;;;;;;3.08;1.83;;;20.50;31.70;;;;;;5058441;28;20075;-83
2021/06/01 17:44:57;;;;;;;1.52;1.38;;;20.60;31.00;;;;;;5058724;28;20022;-82
2021/06/01 17:47:25;;;;;;;1.42;1.10;;;20.50;30.10;;;;;;5071551;28;20079;-82
2021/06/01 17:49:52;;;;;;;1.80;1.58;;;20.50;30.60;;;;;;5059925;28;20063;-83
2021/06/01 17:52:29;;;;;;;3.50;1.50;;;20.50;29.70;;;;;;5059665;28;20031;-83
2021/06/01 17:55:00;;;;;;;1.63;1.50;;;20.50;31.30;;;;;;5077305;28;20063;-83
2021/06/01 17:57:27;;;;;;;1.63;1.20;;;20.40;30.10;;;;;;5059528;28;20131;-82
2021/06/01 17:59:55;;;;;;;1.80;1.30;;;20.30;30.00;;;;;;5078453;28;20032;-83
2021/06/01 18:02:21;;;;;;;1.30;1.20;;;20.30;30.10;;;;;;5044178;28;20037;-83
2021/06/01 18:04:52;;;;;;;1.60;1.20;;;20.30;30.10;;;;;;5039400;28;20074;-83
2021/06/01 18:07:26;;;;;;;2.58;1.52;;;20.20;30.80;;;;;;5048124;28;20028;-82
2021/06/01 19:23:25;;;;;;;3.47;1.75;;;18.60;37.80;;;;;;5075952;28;20063;-80
2021/06/01 19:50:28;;;;;;;4.57;2.13;;;17.50;43.10;;;;;;5074722;28;20028;-83
2021/06/01 19:52:55;;;;;;;2.63;2.38;;;17.40;43.50;;;;;;5075839;28;20027;-82
2021/06/01 19:55:23;;;;;;;4.07;2.53;;;17.30;44.40;;;;;;5075462;28;20016;-83
2021/06/01 19:57:50;;;;;;;4.07;2.35;;;17.10;44.90;;;;;;5057809;28;20033;-81
2021/06/01 20:00:17;;;;;;;3.05;1.95;;;17.00;45.30;;;;;;5075232;28;20174;-82
2021/06/01 20:02:43;;;;;;;2.15;1.70;;;16.90;45.30;;;;;;5075238;28;20041;-81
2021/06/01 20:05:11;;;;;;;4.07;2.00;;;16.90;44.50;;;;;;5075008;28;20032;-83
2021/06/01 20:07:38;;;;;;;4.03;2.20;;;16.90;44.80;;;;;;5075746;28;20043;-81
2021/06/01 20:10:05;;;;;;;1.92;1.70;;;16.80;45.90;;;;;;5057738;28;20016;-83
2021/06/01 20:12:31;;;;;;;4.07;2.13;;;16.80;45.30;;;;;;5058006;28;20123;-82
2021/06/01 20:14:58;;;;;;;3.85;2.33;;;16.70;45.00;;;;;;5057397;28;20060;-82